sensor_id;sensor_type;location;lat;lon;timestamp;pressure;altitude;pressure_sealevel;temperature;humidity
24558;BME280;12726;49.148;8.582;2023-04-24T00:01:48;99301.50;;;11.81;86.51
24558;BME280;12726;49.148;8.582;2023-04-24T00:04:34;99307.47;;;11.83;86.43
24558;BME280;12726;49.148;8.582;2023-04-24T00:07:19;99308.44;;;11.77;86.79
24558;BME280;12726;49.148;8.582;2023-04-24T00:10:06;99300.50;;;11.70;87.08
24558;BME280;12726;49.148;8.582;2023-04-24T00:12:51;99292.06;;;11.67;88.09
24558;BME280;12726;49.148;8.582;2023-04-24T00:15:38;99304.66;;;11.61;88.09
24558;BME280;12726;49.148;8.582;2023-04-24T00:18:23;99291.75;;;11.63;88.07
24558;BME280;12726;49.148;8.582;2023-04-24T00:21:09;99285.38;;;11.69;87.81
24558;BME280;12726;49.148;8.582;2023-04-24T00:23:54;99287.34;;;11.74;87.21
24558;BME280;12726;49.148;8.582;2023-04-24T00:26:40;99290.25;;;11.72;87.59
24558;BME280;12726;49.148;8.582;2023-04-24T00:29:25;99294.88;;;11.72;87.49
24558;BME280;12726;49.148;8.582;2023-04-24T00:32:12;99298.16;;;11.74;87.92
24558;BME280;12726;49.148;8.582;2023-04-24T00:34:57;99297.44;;;11.79;87.88
24558;BME280;12726;49.148;8.582;2023-04-24T00:37:43;99306.06;;;11.81;87.39
24558;BME280;12726;49.148;8.582;2023-04-24T00:40:28;99305.75;;;11.77;87.75
24558;BME280;12726;49.148;8.582;2023-04-24T00:43:13;99300.59;;;11.75;87.68
24558;BME280;12726;49.148;8.582;2023-04-24T00:45:59;99305.81;;;11.82;87.11
24558;BME280;12726;49.148;8.582;2023-04-24T00:48:47;99303.38;;;11.81;87.14
24558;BME280;12726;49.148;8.582;2023-04-24T00:51:32;99302.66;;;11.85;87.30
24558;BME280;12726;49.148;8.582;2023-04-24T00:54:18;99300.19;;;11.84;86.84
24558;BME280;12726;49.148;8.582;2023-04-24T00:57:04;99297.72;;;11.82;86.45
24558;BME280;12726;49.148;8.582;2023-04-24T00:59:49;99283.94;;;11.79;86.83
24558;BME280;12726;49.148;8.582;2023-04-24T01:02:36;99279.38;;;11.79;87.14
24558;BME280;12726;49.148;8.582;2023-04-24T01:05:25;99288.00;;;11.81;87.12
24558;BME280;12726;49.148;8.582;2023-04-24T01:08:11;99285.47;;;11.74;87.07
24558;BME280;12726;49.148;8.582;2023-04-24T01:10:57;99276.00;;;11.72;87.78
24558;BME280;12726;49.148;8.582;2023-04-24T01:13:43;99283.09;;;11.61;88.21
24558;BME280;12726;49.148;8.582;2023-04-24T01:16:28;99288.25;;;11.63;88.09
24558;BME280;12726;49.148;8.582;2023-04-24T01:19:15;99279.59;;;11.61;88.12
24558;BME280;12726;49.148;8.582;2023-04-24T01:22:08;99288.19;;;11.58;88.10
24558;BME280;12726;49.148;8.582;2023-04-24T01:24:56;99288.09;;;11.53;88.36
24558;BME280;12726;49.148;8.582;2023-04-24T01:27:41;99284.16;;;11.60;88.07
24558;BME280;12726;49.148;8.582;2023-04-24T01:30:27;99278.19;;;11.58;88.26
24558;BME280;12726;49.148;8.582;2023-04-24T01:33:13;99273.31;;;11.55;88.41
24558;BME280;12726;49.148;8.582;2023-04-24T01:35:58;99278.19;;;11.58;87.95
24558;BME280;12726;49.148;8.582;2023-04-24T01:38:45;99283.09;;;11.61;87.85
24558;BME280;12726;49.148;8.582;2023-04-24T01:41:30;99278.34;;;11.52;88.26
24558;BME280;12726;49.148;8.582;2023-04-24T01:44:16;99280.09;;;11.58;87.88
24558;BME280;12726;49.148;8.582;2023-04-24T01:47:02;99280.22;;;11.68;87.71
24558;BME280;12726;49.148;8.582;2023-04-24T01:49:48;99267.56;;;11.68;88.08
24558;BME280;12726;49.148;8.582;2023-04-24T01:52:33;99273.22;;;11.67;88.29
24558;BME280;12726;49.148;8.582;2023-04-24T01:55:21;99275.28;;;11.76;87.44
24558;BME280;12726;49.148;8.582;2023-04-24T01:58:06;99278.03;;;11.82;87.03
24558;BME280;12726;49.148;8.582;2023-04-24T02:00:51;99273.78;;;11.86;86.60
24558;BME280;12726;49.148;8.582;2023-04-24T02:03:37;99270.69;;;11.77;87.02
24558;BME280;12726;49.148;8.582;2023-04-24T02:06:22;99270.59;;;11.72;87.46
24558;BME280;12726;49.148;8.582;2023-04-24T02:09:07;99276.66;;;11.62;88.19
24558;BME280;12726;49.148;8.582;2023-04-24T02:11:54;99270.38;;;11.57;88.07
24558;BME280;12726;49.148;8.582;2023-04-24T02:14:40;99255.50;;;11.54;88.71
24558;BME280;12726;49.148;8.582;2023-04-24T02:17:26;99265.56;;;11.42;89.07
24558;BME280;12726;49.148;8.582;2023-04-24T02:20:11;99259.53;;;11.35;89.84
24558;BME280;12726;49.148;8.582;2023-04-24T02:22:57;99263.50;;;11.32;90.31
24558;BME280;12726;49.148;8.582;2023-04-24T02:25:42;99268.25;;;11.25;90.92
24558;BME280;12726;49.148;8.582;2023-04-24T02:28:29;99272.00;;;11.24;91.29
24558;BME280;12726;49.148;8.582;2023-04-24T02:31:14;99269.03;;;11.09;92.47
24558;BME280;12726;49.148;8.582;2023-04-24T02:34:00;99278.69;;;11.05;93.01
24558;BME280;12726;49.148;8.582;2023-04-24T02:36:45;99273.22;;;11.00;92.90
24558;BME280;12726;49.148;8.582;2023-04-24T02:39:30;99281.03;;;11.02;93.36
24558;BME280;12726;49.148;8.582;2023-04-24T02:42:16;99262.75;;;11.04;93.95
24558;BME280;12726;49.148;8.582;2023-04-24T02:45:03;99272.16;;;11.18;93.89
24558;BME280;12726;49.148;8.582;2023-04-24T02:47:50;99265.47;;;11.20;93.91
24558;BME280;12726;49.148;8.582;2023-04-24T02:50:35;99267.13;;;11.21;94.16
24558;BME280;12726;49.148;8.582;2023-04-24T02:53:20;99261.56;;;11.28;94.16
24558;BME280;12726;49.148;8.582;2023-04-24T02:56:06;99268.66;;;11.34;94.50
24558;BME280;12726;49.148;8.582;2023-04-24T02:58:51;99275.84;;;11.45;94.79
24558;BME280;12726;49.148;8.582;2023-04-24T03:01:38;99290.94;;;11.46;95.80
24558;BME280;12726;49.148;8.582;2023-04-24T03:04:24;99290.44;;;11.32;99.29
24558;BME280;12726;49.148;8.582;2023-04-24T03:07:10;99284.25;;;11.32;100.00
24558;BME280;12726;49.148;8.582;2023-04-24T03:09:55;99295.53;;;11.29;100.00
24558;BME280;12726;49.148;8.582;2023-04-24T03:12:41;99292.88;;;11.17;100.00
24558;BME280;12726;49.148;8.582;2023-04-24T03:15:27;99285.47;;;11.08;100.00
24558;BME280;12726;49.148;8.582;2023-04-24T03:18:13;99286.38;;;11.13;100.00
24558;BME280;12726;49.148;8.582;2023-04-24T03:20:58;99318.34;;;11.10;100.00
24558;BME280;12726;49.148;8.582;2023-04-24T03:23:44;99333.13;;;10.79;100.00
24558;BME280;12726;49.148;8.582;2023-04-24T03:26:29;99345.66;;;10.33;100.00
24558;BME280;12726;49.148;8.582;2023-04-24T03:29:15;99339.44;;;10.09;100.00
24558;BME280;12726;49.148;8.582;2023-04-24T03:32:00;99344.34;;;9.89;100.00
24558;BME280;12726;49.148;8.582;2023-04-24T03:34:47;99352.06;;;9.74;100.00
24558;BME280;12726;49.148;8.582;2023-04-24T03:37:32;99344.22;;;9.61;100.00
24558;BME280;12726;49.148;8.582;2023-04-24T03:40:18;99346.69;;;9.51;100.00
24558;BME280;12726;49.148;8.582;2023-04-24T03:43:03;99350.63;;;9.36;100.00
24558;BME280;12726;49.148;8.582;2023-04-24T03:45:48;99349.81;;;9.36;100.00
24558;BME280;12726;49.148;8.582;2023-04-24T03:48:34;99350.25;;;9.33;100.00
24558;BME280;12726;49.148;8.582;2023-04-24T03:51:20;99371.97;;;9.31;100.00
24558;BME280;12726;49.148;8.582;2023-04-24T03:54:06;99364.59;;;9.27;100.00
24558;BME280;12726;49.148;8.582;2023-04-24T03:56:51;99373.69;;;9.26;100.00
24558;BME280;12726;49.148;8.582;2023-04-24T03:59:37;99370.06;;;9.20;100.00
24558;BME280;12726;49.148;8.582;2023-04-24T04:02:22;99369.69;;;9.17;100.00
24558;BME280;12726;49.148;8.582;2023-04-24T04:05:08;99375.97;;;9.11;100.00
24558;BME280;12726;49.148;8.582;2023-04-24T04:07:54;99379.03;;;9.14;100.00
24558;BME280;12726;49.148;8.582;2023-04-24T04:10:40;99387.75;;;9.10;100.00
24558;BME280;12726;49.148;8.582;2023-04-24T04:13:25;99394.13;;;9.15;100.00
24558;BME280;12726;49.148;8.582;2023-04-24T04:16:10;99398.44;;;9.16;100.00
24558;BME280;12726;49.148;8.582;2023-04-24T04:18:57;99392.34;;;9.09;100.00
24558;BME280;12726;49.148;8.582;2023-04-24T04:21:42;99400.97;;;9.11;100.00
24558;BME280;12726;49.148;8.582;2023-04-24T04:24:30;99408.88;;;9.06;100.00
24558;BME280;12726;49.148;8.582;2023-04-24T04:27:16;99403.84;;;8.98;100.00
24558;BME280;12726;49.148;8.582;2023-04-24T04:30:03;99401.66;;;8.88;100.00
24558;BME280;12726;49.148;8.582;2023-04-24T04:32:49;99422.34;;;8.88;100.00
24558;BME280;12726;49.148;8.582;2023-04-24T04:35:35;99422.66;;;8.80;100.00
24558;BME280;12726;49.148;8.582;2023-04-24T04:38:20;99425.16;;;8.75;100.00
24558;BME280;12726;49.148;8.582;2023-04-24T04:41:07;99424.66;;;8.84;100.00
24558;BME280;12726;49.148;8.582;2023-04-24T04:43:52;99422.78;;;8.85;100.00
24558;BME280;12726;49.148;8.582;2023-04-24T04:46:37;99427.63;;;8.76;100.00
24558;BME280;12726;49.148;8.582;2023-04-24T04:49:23;99439.66;;;8.74;100.00
24558;BME280;12726;49.148;8.582;2023-04-24T04:52:08;99440.00;;;8.77;100.00
24558;BME280;12726;49.148;8.582;2023-04-24T04:54:54;99435.38;;;8.84;100.00
24558;BME280;12726;49.148;8.582;2023-04-24T04:57:40;99449.56;;;8.91;100.00
24558;BME280;12726;49.148;8.582;2023-04-24T05:00:25;99446.25;;;9.08;100.00
24558;BME280;12726;49.148;8.582;2023-04-24T05:03:12;99454.31;;;9.08;100.00
24558;BME280;12726;49.148;8.582;2023-04-24T05:05:58;99449.22;;;9.18;100.00
24558;BME280;12726;49.148;8.582;2023-04-24T05:08:43;99439.97;;;9.14;100.00
24558;BME280;12726;49.148;8.582;2023-04-24T05:11:29;99450.25;;;9.17;100.00
24558;BME280;12726;49.148;8.582;2023-04-24T05:14:15;99448.56;;;9.22;100.00
24558;BME280;12726;49.148;8.582;2023-04-24T05:17:01;99452.44;;;9.38;100.00
24558;BME280;12726;49.148;8.582;2023-04-24T05:19:47;99452.38;;;9.45;100.00
24558;BME280;12726;49.148;8.582;2023-04-24T05:22:32;99451.22;;;9.52;100.00
24558;BME280;12726;49.148;8.582;2023-04-24T05:25:18;99457.91;;;9.61;100.00
24558;BME280;12726;49.148;8.582;2023-04-24T05:28:03;99469.19;;;9.81;100.00
24558;BME280;12726;49.148;8.582;2023-04-24T05:30:50;99468.94;;;9.83;100.00
24558;BME280;12726;49.148;8.582;2023-04-24T05:33:35;99468.78;;;10.08;100.00
24558;BME280;12726;49.148;8.582;2023-04-24T05:36:20;99458.34;;;10.11;100.00
24558;BME280;12726;49.148;8.582;2023-04-24T05:39:05;99484.75;;;10.44;98.48
24558;BME280;12726;49.148;8.582;2023-04-24T05:41:51;99475.84;;;10.55;96.92
24558;BME280;12726;49.148;8.582;2023-04-24T05:44:37;99487.19;;;10.69;97.31
24558;BME280;12726;49.148;8.582;2023-04-24T05:47:24;99481.78;;;10.81;93.65
24558;BME280;12726;49.148;8.582;2023-04-24T05:50:10;99482.03;;;10.79;94.55
24558;BME280;12726;49.148;8.582;2023-04-24T05:52:56;99482.34;;;10.83;91.69
24558;BME280;12726;49.148;8.582;2023-04-24T05:55:42;99475.47;;;10.87;93.00
24558;BME280;12726;49.148;8.582;2023-04-24T05:58:27;99492.66;;;10.86;93.09
24558;BME280;12726;49.148;8.582;2023-04-24T06:01:12;99494.41;;;10.92;91.72
24558;BME280;12726;49.148;8.582;2023-04-24T06:03:59;99494.94;;;11.17;92.30
24558;BME280;12726;49.148;8.582;2023-04-24T06:06:44;99493.66;;;11.48;89.13
24558;BME280;12726;49.148;8.582;2023-04-24T06:09:29;99493.47;;;11.66;86.59
24558;BME280;12726;49.148;8.582;2023-04-24T06:12:15;99489.78;;;11.56;88.33
24558;BME280;12726;49.148;8.582;2023-04-24T06:15:00;99489.00;;;11.44;87.36
24558;BME280;12726;49.148;8.582;2023-04-24T06:17:47;99496.44;;;11.25;88.98
24558;BME280;12726;49.148;8.582;2023-04-24T06:20:33;99495.44;;;11.14;88.62
24558;BME280;12726;49.148;8.582;2023-04-24T06:23:19;99503.28;;;11.04;90.23
24558;BME280;12726;49.148;8.582;2023-04-24T06:26:04;99509.03;;;11.08;89.81
24558;BME280;12726;49.148;8.582;2023-04-24T06:28:50;99509.00;;;11.19;86.88
24558;BME280;12726;49.148;8.582;2023-04-24T06:31:35;99503.53;;;11.43;85.68
24558;BME280;12726;49.148;8.582;2023-04-24T06:34:21;99511.63;;;11.71;84.41
24558;BME280;12726;49.148;8.582;2023-04-24T06:37:08;99509.25;;;11.86;80.58
24558;BME280;12726;49.148;8.582;2023-04-24T06:39:53;99513.00;;;11.73;81.00
24558;BME280;12726;49.148;8.582;2023-04-24T06:42:38;99521.53;;;12.10;79.40
24558;BME280;12726;49.148;8.582;2023-04-24T06:45:23;99527.50;;;12.29;77.93
24558;BME280;12726;49.148;8.582;2023-04-24T06:48:09;99524.56;;;12.47;75.03
24558;BME280;12726;49.148;8.582;2023-04-24T06:50:55;99520.06;;;12.20;77.27
24558;BME280;12726;49.148;8.582;2023-04-24T06:53:41;99527.81;;;12.16;76.51
24558;BME280;12726;49.148;8.582;2023-04-24T06:56:27;99534.47;;;12.25;76.00
24558;BME280;12726;49.148;8.582;2023-04-24T06:59:13;99533.41;;;12.43;72.10
24558;BME280;12726;49.148;8.582;2023-04-24T07:01:58;99536.59;;;12.95;71.75
24558;BME280;12726;49.148;8.582;2023-04-24T07:04:44;99536.19;;;13.20;70.13
24558;BME280;12726;49.148;8.582;2023-04-24T07:07:29;99543.81;;;13.06;69.70
24558;BME280;12726;49.148;8.582;2023-04-24T07:10:16;99542.97;;;13.06;70.17
24558;BME280;12726;49.148;8.582;2023-04-24T07:13:02;99560.06;;;13.11;69.41
24558;BME280;12726;49.148;8.582;2023-04-24T07:15:47;99561.09;;;12.88;69.07
24558;BME280;12726;49.148;8.582;2023-04-24T07:18:34;99547.69;;;13.54;67.13
24558;BME280;12726;49.148;8.582;2023-04-24T07:21:20;99558.44;;;13.70;66.82
24558;BME280;12726;49.148;8.582;2023-04-24T07:24:05;99562.41;;;13.41;65.68
24558;BME280;12726;49.148;8.582;2023-04-24T07:26:54;99570.88;;;13.11;66.72
24558;BME280;12726;49.148;8.582;2023-04-24T07:29:40;99554.66;;;12.73;67.08
24558;BME280;12726;49.148;8.582;2023-04-24T07:32:26;99568.97;;;12.73;66.46
24558;BME280;12726;49.148;8.582;2023-04-24T07:35:11;99565.78;;;12.26;68.82
24558;BME280;12726;49.148;8.582;2023-04-24T07:37:57;99567.47;;;12.15;69.31
24558;BME280;12726;49.148;8.582;2023-04-24T07:40:42;99578.47;;;11.97;71.53
24558;BME280;12726;49.148;8.582;2023-04-24T07:43:29;99581.06;;;12.21;71.06
24558;BME280;12726;49.148;8.582;2023-04-24T07:46:14;99571.97;;;12.10;71.64
24558;BME280;12726;49.148;8.582;2023-04-24T07:48:59;99596.31;;;11.98;71.75
24558;BME280;12726;49.148;8.582;2023-04-24T07:51:45;99602.25;;;11.60;73.97
24558;BME280;12726;49.148;8.582;2023-04-24T07:54:30;99610.31;;;11.20;79.10
24558;BME280;12726;49.148;8.582;2023-04-24T07:57:16;99608.56;;;11.03;82.91
24558;BME280;12726;49.148;8.582;2023-04-24T08:00:04;99619.31;;;11.03;83.41
24558;BME280;12726;49.148;8.582;2023-04-24T08:02:50;99619.34;;;11.14;85.12
24558;BME280;12726;49.148;8.582;2023-04-24T08:05:36;99620.19;;;11.78;83.25
24558;BME280;12726;49.148;8.582;2023-04-24T08:08:22;99619.69;;;11.81;80.55
24558;BME280;12726;49.148;8.582;2023-04-24T08:11:07;99632.22;;;11.87;77.27
24558;BME280;12726;49.148;8.582;2023-04-24T08:13:53;99633.16;;;11.93;76.24
24558;BME280;12726;49.148;8.582;2023-04-24T08:16:40;99652.06;;;11.69;73.86
24558;BME280;12726;49.148;8.582;2023-04-24T08:19:25;99637.91;;;11.62;74.83
24558;BME280;12726;49.148;8.582;2023-04-24T08:22:11;99642.78;;;12.17;73.21
24558;BME280;12726;49.148;8.582;2023-04-24T08:24:56;99642.44;;;13.42;64.43
24558;BME280;12726;49.148;8.582;2023-04-24T08:27:41;99639.22;;;13.45;65.47
24558;BME280;12726;49.148;8.582;2023-04-24T08:30:27;99643.97;;;13.77;65.13
24558;BME280;12726;49.148;8.582;2023-04-24T08:33:14;99639.38;;;13.99;63.31
24558;BME280;12726;49.148;8.582;2023-04-24T08:36:00;99649.00;;;13.29;67.53
24558;BME280;12726;49.148;8.582;2023-04-24T08:38:45;99640.78;;;13.19;66.14
24558;BME280;12726;49.148;8.582;2023-04-24T08:41:30;99647.16;;;13.13;66.51
24558;BME280;12726;49.148;8.582;2023-04-24T08:44:16;99662.34;;;13.03;66.52
24558;BME280;12726;49.148;8.582;2023-04-24T08:47:03;99655.72;;;13.10;67.13
24558;BME280;12726;49.148;8.582;2023-04-24T08:49:49;99659.34;;;12.82;67.41
24558;BME280;12726;49.148;8.582;2023-04-24T08:52:35;99672.66;;;12.72;63.85
24558;BME280;12726;49.148;8.582;2023-04-24T08:55:20;99663.59;;;12.78;62.81
24558;BME280;12726;49.148;8.582;2023-04-24T08:58:06;99666.88;;;12.64;63.77
24558;BME280;12726;49.148;8.582;2023-04-24T09:00:54;99668.50;;;12.98;63.25
24558;BME280;12726;49.148;8.582;2023-04-24T09:03:40;99680.84;;;13.44;63.78
24558;BME280;12726;49.148;8.582;2023-04-24T09:06:27;99664.25;;;13.57;63.09
24558;BME280;12726;49.148;8.582;2023-04-24T09:09:12;99677.13;;;13.28;63.25
24558;BME280;12726;49.148;8.582;2023-04-24T09:11:58;99679.22;;;12.93;63.12
24558;BME280;12726;49.148;8.582;2023-04-24T09:14:44;99680.22;;;12.70;65.51
24558;BME280;12726;49.148;8.582;2023-04-24T09:17:30;99681.06;;;12.42;65.31
24558;BME280;12726;49.148;8.582;2023-04-24T09:20:16;99677.41;;;12.08;68.46
24558;BME280;12726;49.148;8.582;2023-04-24T09:23:02;99691.81;;;11.86;68.81
24558;BME280;12726;49.148;8.582;2023-04-24T09:25:54;99689.03;;;11.57;68.22
24558;BME280;12726;49.148;8.582;2023-04-24T09:28:40;99680.13;;;11.57;69.92
24558;BME280;12726;49.148;8.582;2023-04-24T09:31:27;99687.00;;;11.53;68.53
24558;BME280;12726;49.148;8.582;2023-04-24T09:34:13;99707.91;;;11.57;69.65
24558;BME280;12726;49.148;8.582;2023-04-24T09:36:58;99706.13;;;12.26;67.87
24558;BME280;12726;49.148;8.582;2023-04-24T09:40:13;99709.09;;;12.13;67.47
24558;BME280;12726;49.148;8.582;2023-04-24T09:42:58;99724.66;;;11.83;67.46
24558;BME280;12726;49.148;8.582;2023-04-24T09:45:46;99729.78;;;11.61;67.89
24558;BME280;12726;49.148;8.582;2023-04-24T09:48:32;99735.31;;;11.31;69.79
24558;BME280;12726;49.148;8.582;2023-04-24T09:51:33;99750.75;;;11.24;68.69
24558;BME280;12726;49.148;8.582;2023-04-24T09:54:20;99738.00;;;11.31;69.36
24558;BME280;12726;49.148;8.582;2023-04-24T09:57:08;99728.03;;;11.31;69.55
24558;BME280;12726;49.148;8.582;2023-04-24T09:59:53;99731.41;;;11.97;68.31
24558;BME280;12726;49.148;8.582;2023-04-24T10:02:39;99727.38;;;12.96;67.63
24558;BME280;12726;49.148;8.582;2023-04-24T10:05:27;99731.31;;;14.37;57.48
24558;BME280;12726;49.148;8.582;2023-04-24T10:08:13;99720.03;;;15.31;56.39
24558;BME280;12726;49.148;8.582;2023-04-24T10:10:59;99738.19;;;14.72;57.39
24558;BME280;12726;49.148;8.582;2023-04-24T10:13:45;99721.31;;;14.38;58.06
24558;BME280;12726;49.148;8.582;2023-04-24T10:16:32;99730.03;;;13.41;57.24
24558;BME280;12726;49.148;8.582;2023-04-24T10:19:17;99734.09;;;13.44;59.54
24558;BME280;12726;49.148;8.582;2023-04-24T10:22:04;99736.47;;;13.07;60.59
24558;BME280;12726;49.148;8.582;2023-04-24T10:24:50;99732.81;;;12.68;60.31
24558;BME280;12726;49.148;8.582;2023-04-24T10:27:37;99736.13;;;12.30;61.26
24558;BME280;12726;49.148;8.582;2023-04-24T10:30:24;99730.84;;;11.95;63.56
24558;BME280;12726;49.148;8.582;2023-04-24T10:33:10;99754.53;;;11.69;65.00
24558;BME280;12726;49.148;8.582;2023-04-24T10:35:56;99756.84;;;11.31;68.90
24558;BME280;12726;49.148;8.582;2023-04-24T10:38:43;99778.09;;;10.86;75.98
24558;BME280;12726;49.148;8.582;2023-04-24T10:41:32;99787.00;;;10.38;79.25
24558;BME280;12726;49.148;8.582;2023-04-24T10:44:22;99780.16;;;10.24;81.28
24558;BME280;12726;49.148;8.582;2023-04-24T10:47:13;99783.34;;;10.14;81.22
24558;BME280;12726;49.148;8.582;2023-04-24T10:49:59;99780.88;;;10.13;81.39
24558;BME280;12726;49.148;8.582;2023-04-24T10:52:45;99784.41;;;10.13;82.16
24558;BME280;12726;49.148;8.582;2023-04-24T10:55:42;99777.97;;;10.33;80.42
24558;BME280;12726;49.148;8.582;2023-04-24T10:58:37;99795.72;;;10.52;80.81
24558;BME280;12726;49.148;8.582;2023-04-24T11:01:24;99795.97;;;10.50;81.84
24558;BME280;12726;49.148;8.582;2023-04-24T11:04:12;99794.69;;;10.53;85.20
24558;BME280;12726;49.148;8.582;2023-04-24T11:06:58;99790.44;;;11.05;87.28
24558;BME280;12726;49.148;8.582;2023-04-24T11:09:43;99788.97;;;11.44;79.98
24558;BME280;12726;49.148;8.582;2023-04-24T11:12:29;99792.88;;;11.71;81.84
24558;BME280;12726;49.148;8.582;2023-04-24T11:15:14;99783.97;;;11.83;79.68
24558;BME280;12726;49.148;8.582;2023-04-24T11:18:03;99775.44;;;11.86;75.76
24558;BME280;12726;49.148;8.582;2023-04-24T11:20:54;99778.44;;;11.66;73.54
24558;BME280;12726;49.148;8.582;2023-04-24T11:23:39;99771.06;;;11.50;73.08
24558;BME280;12726;49.148;8.582;2023-04-24T11:26:25;99777.72;;;11.59;73.63
24558;BME280;12726;49.148;8.582;2023-04-24T11:29:15;99789.09;;;11.61;72.91
24558;BME280;12726;49.148;8.582;2023-04-24T11:32:18;99793.41;;;11.38;73.24
24558;BME280;12726;49.148;8.582;2023-04-24T11:35:05;99792.22;;;11.11;75.68
24558;BME280;12726;49.148;8.582;2023-04-24T11:37:53;99803.19;;;10.98;77.13
24558;BME280;12726;49.148;8.582;2023-04-24T11:40:39;99809.22;;;10.82;75.85
24558;BME280;12726;49.148;8.582;2023-04-24T11:43:24;99818.34;;;10.81;76.92
24558;BME280;12726;49.148;8.582;2023-04-24T11:46:10;99815.91;;;10.79;78.72
24558;BME280;12726;49.148;8.582;2023-04-24T11:48:56;99823.81;;;10.74;78.64
24558;BME280;12726;49.148;8.582;2023-04-24T11:51:41;99822.16;;;11.03;77.48
24558;BME280;12726;49.148;8.582;2023-04-24T11:54:28;99828.00;;;11.42;77.92
24558;BME280;12726;49.148;8.582;2023-04-24T11:57:13;99813.34;;;12.42;74.78
24558;BME280;12726;49.148;8.582;2023-04-24T11:59:58;99814.72;;;13.30;74.06
24558;BME280;12726;49.148;8.582;2023-04-24T12:02:44;99807.69;;;13.79;70.35
24558;BME280;12726;49.148;8.582;2023-04-24T12:05:29;99804.50;;;13.65;66.82
24558;BME280;12726;49.148;8.582;2023-04-24T12:08:27;99812.97;;;13.36;67.20
24558;BME280;12726;49.148;8.582;2023-04-24T12:11:15;99818.19;;;13.92;64.62
24558;BME280;12726;49.148;8.582;2023-04-24T12:14:11;99817.34;;;13.92;64.15
24558;BME280;12726;49.148;8.582;2023-04-24T12:16:56;99815.72;;;13.91;65.01
24558;BME280;12726;49.148;8.582;2023-04-24T12:19:46;99811.13;;;13.75;63.77
24558;BME280;12726;49.148;8.582;2023-04-24T12:22:45;99804.75;;;13.47;62.66
24558;BME280;12726;49.148;8.582;2023-04-24T12:25:32;99807.03;;;13.22;63.20
24558;BME280;12726;49.148;8.582;2023-04-24T12:28:20;99812.09;;;13.18;64.01
24558;BME280;12726;49.148;8.582;2023-04-24T12:31:06;99813.19;;;13.34;62.88
24558;BME280;12726;49.148;8.582;2023-04-24T12:33:51;99813.69;;;13.03;64.78
24558;BME280;12726;49.148;8.582;2023-04-24T12:36:37;99806.16;;;13.05;64.30
24558;BME280;12726;49.148;8.582;2023-04-24T12:39:22;99805.00;;;13.01;63.60
24558;BME280;12726;49.148;8.582;2023-04-24T12:42:11;99806.56;;;12.97;61.78
24558;BME280;12726;49.148;8.582;2023-04-24T12:45:00;99803.03;;;12.96;62.15
24558;BME280;12726;49.148;8.582;2023-04-24T12:47:46;99798.19;;;13.26;61.41
24558;BME280;12726;49.148;8.582;2023-04-24T12:50:31;99803.59;;;13.43;62.67
24558;BME280;12726;49.148;8.582;2023-04-24T12:53:17;99803.94;;;13.47;60.22
24558;BME280;12726;49.148;8.582;2023-04-24T12:56:02;99802.81;;;13.98;60.06
24558;BME280;12726;49.148;8.582;2023-04-24T12:58:48;99802.16;;;14.29;57.11
24558;BME280;12726;49.148;8.582;2023-04-24T13:01:34;99798.13;;;14.32;57.63
24558;BME280;12726;49.148;8.582;2023-04-24T13:04:20;99803.59;;;14.15;57.20
24558;BME280;12726;49.148;8.582;2023-04-24T13:07:05;99788.44;;;14.58;57.38
24558;BME280;12726;49.148;8.582;2023-04-24T13:09:51;99791.22;;;14.63;56.31
24558;BME280;12726;49.148;8.582;2023-04-24T13:12:37;99794.25;;;14.44;57.92
24558;BME280;12726;49.148;8.582;2023-04-24T13:15:22;99788.78;;;14.61;59.37
24558;BME280;12726;49.148;8.582;2023-04-24T13:18:10;99788.63;;;14.73;56.70
24558;BME280;12726;49.148;8.582;2023-04-24T13:20:55;99798.94;;;14.49;56.81
24558;BME280;12726;49.148;8.582;2023-04-24T13:23:40;99801.69;;;14.54;57.83
24558;BME280;12726;49.148;8.582;2023-04-24T13:26:26;99792.41;;;14.72;56.38
24558;BME280;12726;49.148;8.582;2023-04-24T13:29:11;99794.50;;;15.18;56.65
24558;BME280;12726;49.148;8.582;2023-04-24T13:31:57;99788.97;;;14.81;54.17
24558;BME280;12726;49.148;8.582;2023-04-24T13:34:44;99797.94;;;14.82;54.45
24558;BME280;12726;49.148;8.582;2023-04-24T13:37:29;99801.97;;;14.79;55.60
24558;BME280;12726;49.148;8.582;2023-04-24T13:40:14;99793.81;;;15.06;54.86
24558;BME280;12726;49.148;8.582;2023-04-24T13:43:00;99789.13;;;15.23;56.47
24558;BME280;12726;49.148;8.582;2023-04-24T13:45:45;99791.19;;;15.11;52.73
24558;BME280;12726;49.148;8.582;2023-04-24T13:48:31;99793.91;;;15.11;52.80
24558;BME280;12726;49.148;8.582;2023-04-24T13:51:18;99801.72;;;14.81;52.35
24558;BME280;12726;49.148;8.582;2023-04-24T13:54:03;99796.16;;;14.71;54.98
24558;BME280;12726;49.148;8.582;2023-04-24T13:56:48;99801.81;;;14.42;55.17
24558;BME280;12726;49.148;8.582;2023-04-24T13:59:34;99792.78;;;14.37;57.15
24558;BME280;12726;49.148;8.582;2023-04-24T14:02:19;99796.72;;;14.29;56.43
24558;BME280;12726;49.148;8.582;2023-04-24T14:05:05;99791.94;;;14.36;55.98
24558;BME280;12726;49.148;8.582;2023-04-24T14:07:52;99793.28;;;14.34;56.48
24558;BME280;12726;49.148;8.582;2023-04-24T14:10:37;99799.00;;;14.16;56.81
24558;BME280;12726;49.148;8.582;2023-04-24T14:13:23;99790.66;;;14.00;57.29
24558;BME280;12726;49.148;8.582;2023-04-24T14:16:09;99785.06;;;13.85;56.58
24558;BME280;12726;49.148;8.582;2023-04-24T14:18:54;99781.38;;;13.75;58.15
24558;BME280;12726;49.148;8.582;2023-04-24T14:21:39;99783.69;;;14.04;59.07
24558;BME280;12726;49.148;8.582;2023-04-24T14:24:26;99778.34;;;14.31;56.61
24558;BME280;12726;49.148;8.582;2023-04-24T14:27:11;99783.03;;;14.58;56.67
24558;BME280;12726;49.148;8.582;2023-04-24T14:29:57;99781.66;;;14.55;55.32
24558;BME280;12726;49.148;8.582;2023-04-24T14:32:42;99772.97;;;14.53;54.01
24558;BME280;12726;49.148;8.582;2023-04-24T14:35:28;99764.78;;;14.48;53.19
24558;BME280;12726;49.148;8.582;2023-04-24T14:38:15;99755.75;;;14.42;54.05
24558;BME280;12726;49.148;8.582;2023-04-24T14:41:02;99770.13;;;14.43;54.55